createdAt,value
2018-01-27T00:00:52.470Z,102085.08
2018-01-27T00:03:20.015Z,102088.98
2018-01-27T00:05:47.610Z,102089.14
2018-01-27T00:08:15.226Z,102095.63
2018-01-27T00:10:42.769Z,102102.30
2018-01-27T00:13:10.325Z,102109.30
2018-01-27T00:15:38.151Z,102110.31
2018-01-27T00:18:05.710Z,102100.25
2018-01-27T00:20:33.257Z,102100.59
2018-01-27T00:23:01.719Z,102104.80
2018-01-27T00:25:29.310Z,102108.27
2018-01-27T00:27:56.901Z,102105.91
2018-01-27T00:30:24.458Z,102112.70
2018-01-27T00:32:52.048Z,102111.05
2018-01-27T00:35:19.606Z,102112.93
2018-01-27T00:37:47.162Z,102109.38
2018-01-27T00:40:14.705Z,102113.97
2018-01-27T00:42:42.254Z,102118.91
2018-01-27T00:45:09.850Z,102117.21
2018-01-27T00:47:37.404Z,102119.88
2018-01-27T00:50:04.990Z,102117.45
2018-01-27T00:52:32.548Z,102123.09
2018-01-27T00:55:00.134Z,102124.55
2018-01-27T00:57:27.679Z,102124.77
2018-01-27T00:59:55.271Z,102128.91
2018-01-27T01:02:22.866Z,102124.19
2018-01-27T01:04:50.409Z,102132.39
2018-01-27T01:07:18.007Z,102127.80
2018-01-27T01:09:45.570Z,102140.19
2018-01-27T01:12:13.130Z,102138.34
2018-01-27T01:14:40.702Z,102142.09
2018-01-27T01:17:08.490Z,102139.60
2018-01-27T01:19:36.379Z,102141.48
2018-01-27T01:22:03.931Z,102136.02
2018-01-27T01:24:31.490Z,102146.84
2018-01-27T01:26:59.141Z,102146.88
2018-01-27T01:29:26.682Z,102154.48
2018-01-27T01:31:54.238Z,102153.47
2018-01-27T01:34:22.534Z,102155.19
2018-01-27T01:36:50.098Z,102157.63
2018-01-27T01:39:17.772Z,102160.92
2018-01-27T01:41:45.422Z,102152.39
2018-01-27T01:44:18.761Z,102161.61
2018-01-27T01:46:46.305Z,102166.42
2018-01-27T01:49:24.749Z,102165.55
2018-01-27T01:51:52.358Z,102162.37
2018-01-27T01:54:19.905Z,102165.77
2018-01-27T01:56:47.494Z,102172.84
2018-01-27T01:59:15.041Z,102169.24
2018-01-27T02:01:42.596Z,102173.19
2018-01-27T02:04:10.150Z,102169.08
2018-01-27T02:06:37.924Z,102176.78
2018-01-27T02:09:05.475Z,102176.39
2018-01-27T02:11:33.045Z,102190.37
2018-01-27T02:14:01.410Z,102187.03
2018-01-27T02:16:29.678Z,102184.25
2018-01-27T02:18:58.067Z,102179.89
2018-01-27T02:21:26.493Z,102183.11
2018-01-27T02:23:54.039Z,102180.11
2018-01-27T02:26:21.582Z,102180.19
2018-01-27T02:28:49.241Z,102182.27
2018-01-27T02:31:16.805Z,102189.55
2018-01-27T02:33:44.466Z,102191.45
2018-01-27T02:36:12.133Z,102200.45
2018-01-27T02:38:39.692Z,102196.97
2018-01-27T02:41:07.249Z,102204.03
2018-01-27T02:43:34.823Z,102200.63
2018-01-27T02:46:02.368Z,102205.47
2018-01-27T02:48:29.911Z,102204.39
2018-01-27T02:50:57.695Z,102202.91
2018-01-27T02:53:26.025Z,102201.72
2018-01-27T02:55:53.565Z,102207.62
2018-01-27T02:58:21.119Z,102215.23
2018-01-27T03:00:48.668Z,102222.28
2018-01-27T03:03:16.319Z,102225.89
2018-01-27T03:05:43.982Z,102239.45
2018-01-27T03:08:11.641Z,102236.02
2018-01-27T03:10:40.105Z,102241.55
2018-01-27T03:13:09.294Z,102238.45
2018-01-27T03:15:36.985Z,102247.88
2018-01-27T03:18:04.549Z,102248.26
2018-01-27T03:20:32.087Z,102254.73
2018-01-27T03:22:59.635Z,102249.13
2018-01-27T03:25:27.214Z,102253.16
2018-01-27T03:27:54.766Z,102260.35
2018-01-27T03:30:22.320Z,102266.40
2018-01-27T03:32:50.634Z,102268.57
2018-01-27T03:35:18.178Z,102268.20
2018-01-27T03:37:45.726Z,102273.16
2018-01-27T03:40:13.282Z,102268.02
2018-01-27T03:42:40.840Z,102275.30
2018-01-27T03:45:08.399Z,102280.42
2018-01-27T03:47:36.098Z,102283.31
2018-01-27T03:50:04.542Z,102285.55
2018-01-27T03:52:32.115Z,102293.12
2018-01-27T03:54:59.663Z,102291.65
2018-01-27T03:57:27.258Z,102295.00
2018-01-27T03:59:54.922Z,102293.72
2018-01-27T04:02:22.583Z,102284.12
2018-01-27T04:04:50.138Z,102281.69
2018-01-27T04:07:17.717Z,102284.89
2018-01-27T04:09:45.269Z,102296.41
2018-01-27T04:12:13.734Z,102300.50
2018-01-27T04:14:42.074Z,102307.27
2018-01-27T04:17:09.681Z,102308.78
2018-01-27T04:19:37.276Z,102307.28
2018-01-27T04:22:04.829Z,102313.84
2018-01-27T04:24:32.444Z,102317.26
2018-01-27T04:27:00.905Z,102321.08
2018-01-27T04:29:29.430Z,102315.92
2018-01-27T04:31:57.969Z,102318.84
2018-01-27T04:34:26.290Z,102325.91
2018-01-27T04:36:54.634Z,102329.46
2018-01-27T04:39:22.185Z,102331.28
2018-01-27T04:41:50.562Z,102333.08
2018-01-27T04:44:18.120Z,102328.45
2018-01-27T04:46:45.678Z,102326.77
2018-01-27T04:49:14.057Z,102328.69
2018-01-27T04:51:42.390Z,102331.58
2018-01-27T04:54:10.045Z,102323.71
2018-01-27T04:56:38.382Z,102340.92
2018-01-27T04:59:06.884Z,102344.06
2018-01-27T05:01:35.345Z,102351.48
2018-01-27T05:04:03.679Z,102345.31
2018-01-27T05:06:32.016Z,102356.83
2018-01-27T05:09:00.333Z,102356.77
2018-01-27T05:11:27.922Z,102363.45
2018-01-27T05:13:55.481Z,102360.94
2018-01-27T05:16:24.033Z,102361.21
2018-01-27T05:18:51.577Z,102358.32
2018-01-27T05:21:19.893Z,102363.56
2018-01-27T05:23:47.446Z,102362.88
2018-01-27T05:26:15.097Z,102372.66
2018-01-27T05:28:42.763Z,102377.35
2018-01-27T05:31:11.249Z,102378.66
2018-01-27T05:33:38.907Z,102385.88
2018-01-27T05:36:07.218Z,102386.66
2018-01-27T05:38:34.778Z,102392.66
2018-01-27T05:41:02.333Z,102400.98
2018-01-27T05:43:29.873Z,102399.94
2018-01-27T05:45:57.421Z,102399.94
2018-01-27T05:48:24.974Z,102418.83
2018-01-27T05:50:52.545Z,102415.16
2018-01-27T05:53:20.108Z,102422.83
2018-01-27T05:55:47.658Z,102419.06
2018-01-27T05:58:15.201Z,102419.55
2018-01-27T06:00:42.758Z,102428.30
2018-01-27T06:03:10.322Z,102438.77
2018-01-27T06:05:37.882Z,102437.61
2018-01-27T06:08:05.423Z,102443.26
2018-01-27T06:10:32.978Z,102441.38
2018-01-27T06:13:00.578Z,102447.23
2018-01-27T06:15:28.113Z,102450.25
2018-01-27T06:17:56.539Z,102451.23
2018-01-27T06:20:24.094Z,102446.06
2018-01-27T06:22:51.759Z,102456.92
2018-01-27T06:25:19.311Z,102457.34
2018-01-27T06:27:46.877Z,102460.69
2018-01-27T06:30:14.422Z,102474.54
2018-01-27T06:32:41.969Z,102476.81
2018-01-27T06:35:09.558Z,102477.30
2018-01-27T06:37:37.110Z,102479.28
2018-01-27T06:40:04.678Z,102490.48
2018-01-27T06:42:32.270Z,102496.61
2018-01-27T06:44:59.830Z,102496.83
2018-01-27T06:47:27.384Z,102502.70
2018-01-27T06:49:54.943Z,102504.29
2018-01-27T06:52:22.583Z,102511.09
2018-01-27T06:54:50.130Z,102514.92
2018-01-27T06:57:17.683Z,102511.59
2018-01-27T06:59:45.232Z,102518.38
2018-01-27T07:02:12.791Z,102515.67
2018-01-27T07:04:40.342Z,102526.97
2018-01-27T07:07:07.894Z,102525.28
2018-01-27T07:09:35.502Z,102528.82
2018-01-27T07:12:03.129Z,102534.95
2018-01-27T07:14:31.703Z,102535.91
2018-01-27T07:16:59.516Z,102534.78
2018-01-27T07:19:27.062Z,102540.41
2018-01-27T07:21:54.637Z,102544.17
2018-01-27T07:24:22.181Z,102550.19
2018-01-27T07:26:49.734Z,102553.93
2018-01-27T07:29:17.287Z,102562.78
2018-01-27T07:31:44.838Z,102564.25
2018-01-27T07:34:12.391Z,102570.37
2018-01-27T07:36:39.938Z,102569.20
2018-01-27T07:39:07.494Z,102572.19
2018-01-27T07:41:35.042Z,102577.25
2018-01-27T07:44:02.586Z,102579.48
2018-01-27T07:46:30.130Z,102580.70
2018-01-27T07:48:57.681Z,102593.30
2018-01-27T07:51:25.220Z,102594.27
2018-01-27T07:53:52.771Z,102601.83
2018-01-27T07:56:20.320Z,102603.06
2018-01-27T07:58:47.914Z,102603.63
2018-01-27T08:01:15.465Z,102610.76
2018-01-27T08:03:43.815Z,102612.61
2018-01-27T08:06:12.267Z,102612.31
2018-01-27T08:08:40.589Z,102611.36
2018-01-27T08:11:08.134Z,102617.92
2018-01-27T08:13:35.681Z,102615.19
2018-01-27T08:16:03.230Z,102615.13
2018-01-27T08:18:31.497Z,102614.89
2018-01-27T08:20:59.057Z,102614.70
2018-01-27T08:23:26.605Z,102627.34
2018-01-27T08:25:54.151Z,102622.45
2018-01-27T08:28:21.706Z,102623.77
2018-01-27T08:30:49.249Z,102626.11
2018-01-27T08:33:16.789Z,102630.31
2018-01-27T08:35:44.339Z,102631.79
2018-01-27T08:38:11.894Z,102628.46
2018-01-27T08:40:39.507Z,102633.11
2018-01-27T08:43:07.057Z,102636.31
2018-01-27T08:45:35.446Z,102635.33
2018-01-27T08:48:03.002Z,102637.92
2018-01-27T08:50:30.546Z,102634.02
2018-01-27T08:52:58.157Z,102634.10
2018-01-27T08:55:25.722Z,102634.59
2018-01-27T08:57:53.283Z,102635.81
2018-01-27T09:00:21.739Z,102639.23
2018-01-27T09:02:49.282Z,102641.83
2018-01-27T09:05:16.829Z,102638.72
2018-01-27T09:07:44.446Z,102644.29
2018-01-27T09:10:12.001Z,102645.38
2018-01-27T09:12:39.570Z,102642.38
2018-01-27T09:15:07.114Z,102647.76
2018-01-27T09:17:34.793Z,102646.14
2018-01-27T09:20:02.465Z,102651.47
2018-01-27T09:22:30.118Z,102650.48
2018-01-27T09:24:57.670Z,102657.25
2018-01-27T09:27:25.213Z,102652.69
2018-01-27T09:29:52.807Z,102652.47
2018-01-27T09:32:20.358Z,102655.16
2018-01-27T09:34:48.041Z,102661.80
2018-01-27T09:37:15.581Z,102662.12
2018-01-27T09:39:43.145Z,102665.73
2018-01-27T09:42:10.684Z,102667.06
2018-01-27T09:44:38.233Z,102659.92
2018-01-27T09:47:05.775Z,102666.12
2018-01-27T09:49:33.339Z,102672.08
2018-01-27T09:52:00.932Z,102675.99
2018-01-27T09:54:28.483Z,102680.45
2018-01-27T09:56:56.738Z,102673.57
2018-01-27T09:59:24.292Z,102677.89
2018-01-27T10:01:51.913Z,102679.62
2018-01-27T10:04:19.565Z,102684.19
2018-01-27T10:06:47.109Z,102676.42
2018-01-27T10:09:14.659Z,102670.03
2018-01-27T10:11:42.250Z,102670.52
2018-01-27T10:14:09.840Z,102671.13
2018-01-27T10:16:37.387Z,102674.88
2018-01-27T10:19:04.930Z,102671.42
2018-01-27T10:21:32.474Z,102675.14
2018-01-27T10:24:00.032Z,102668.05
2018-01-27T10:26:27.589Z,102673.27
2018-01-27T10:28:55.139Z,102675.94
2018-01-27T10:31:22.734Z,102683.80
2018-01-27T10:33:50.282Z,102678.59
2018-01-27T10:36:17.825Z,102681.34
2018-01-27T10:38:45.376Z,102682.88
2018-01-27T10:41:12.977Z,102684.64
2018-01-27T10:43:40.525Z,102682.45
2018-01-27T10:46:08.074Z,102683.80
2018-01-27T10:48:35.618Z,102690.92
2018-01-27T10:51:03.163Z,102682.99
2018-01-27T10:53:30.714Z,102683.59
2018-01-27T10:55:58.262Z,102687.80
2018-01-27T10:58:25.897Z,102685.34
2018-01-27T11:00:53.443Z,102692.23
2018-01-27T11:03:21.105Z,102697.83
2018-01-27T11:05:48.649Z,102696.31
2018-01-27T11:08:16.229Z,102690.82
2018-01-27T11:10:43.776Z,102702.68
2018-01-27T11:13:11.354Z,102707.00
2018-01-27T11:15:38.898Z,102714.45
2018-01-27T11:18:06.485Z,102714.28
2018-01-27T11:20:34.029Z,102715.08
2018-01-27T11:23:01.574Z,102718.97
2018-01-27T11:25:29.115Z,102721.57
2018-01-27T11:27:57.446Z,102731.93
2018-01-27T11:30:25.023Z,102732.61
2018-01-27T11:32:52.601Z,102730.01
2018-01-27T11:35:20.141Z,102729.94
2018-01-27T11:37:47.694Z,102736.62
2018-01-27T11:40:15.241Z,102736.95
2018-01-27T11:42:42.787Z,102735.89
2018-01-27T11:45:10.341Z,102735.11
2018-01-27T11:47:37.936Z,102736.34
2018-01-27T11:50:05.603Z,102745.20
2018-01-27T11:52:33.141Z,102739.18
2018-01-27T11:55:00.716Z,102739.13
2018-01-27T11:57:29.127Z,102733.39
2018-01-27T11:59:56.797Z,102721.30
2018-01-27T12:02:24.378Z,102719.88
2018-01-27T12:04:51.922Z,102725.08
2018-01-27T12:07:20.510Z,102719.75
2018-01-27T12:09:48.882Z,102708.59
2018-01-27T12:12:16.494Z,102705.44
2018-01-27T12:14:44.053Z,102714.35
2018-01-27T12:17:11.600Z,102708.06
2018-01-27T12:19:40.317Z,102703.70
2018-01-27T12:22:07.871Z,102701.47
2018-01-27T12:24:35.426Z,102695.95
2018-01-27T12:27:02.973Z,102697.48
2018-01-27T12:29:30.665Z,102706.73
2018-01-27T12:31:58.321Z,102695.89
2018-01-27T12:34:25.872Z,102691.17
2018-01-27T12:36:53.423Z,102692.27
2018-01-27T12:39:20.977Z,102691.84
2018-01-27T12:41:48.539Z,102691.45
2018-01-27T12:44:16.095Z,102690.28
2018-01-27T12:46:43.693Z,102683.16
2018-01-27T12:49:11.237Z,102696.47
2018-01-27T12:51:38.785Z,102694.17
2018-01-27T12:54:06.338Z,102694.50
2018-01-27T12:56:33.896Z,102688.48
2018-01-27T12:59:01.626Z,102677.47
2018-01-27T13:01:29.178Z,102658.75
2018-01-27T13:03:56.754Z,102651.23
2018-01-27T13:06:24.305Z,102648.62
2018-01-27T13:08:51.850Z,102643.68
2018-01-27T13:11:19.478Z,102638.69
2018-01-27T13:13:47.056Z,102645.29
2018-01-27T13:16:14.606Z,102642.23
2018-01-27T13:18:42.182Z,102644.27
2018-01-27T13:21:09.726Z,102643.87
2018-01-27T13:23:37.264Z,102636.14
2018-01-27T13:26:04.852Z,102643.05
2018-01-27T13:28:32.402Z,102648.38
2018-01-27T13:30:59.944Z,102646.80
2018-01-27T13:33:27.486Z,102654.30
2018-01-27T13:35:55.029Z,102656.48
2018-01-27T13:38:22.577Z,102660.39
2018-01-27T13:40:51.053Z,102662.01
2018-01-27T13:43:18.601Z,102661.73
2018-01-27T13:45:46.150Z,102666.23
2018-01-27T13:48:13.725Z,102671.05
2018-01-27T13:50:41.273Z,102673.23
2018-01-27T13:53:08.846Z,102669.91
2018-01-27T13:55:36.386Z,102679.17
2018-01-27T13:58:03.935Z,102675.86
2018-01-27T14:00:31.485Z,102679.41
2018-01-27T14:02:59.030Z,102681.83
2018-01-27T14:05:26.619Z,102675.95
2018-01-27T14:07:54.210Z,102687.04
2018-01-27T14:10:22.649Z,102683.48
2018-01-27T14:12:50.199Z,102685.02
2018-01-27T14:15:17.742Z,102689.52
2018-01-27T14:17:45.294Z,102682.82
2018-01-27T14:20:13.750Z,102685.33
2018-01-27T14:22:41.294Z,102686.34
2018-01-27T14:25:08.846Z,102688.77
2018-01-27T14:27:36.385Z,102675.34
2018-01-27T14:30:03.922Z,102688.78
2018-01-27T14:32:31.467Z,102691.66
2018-01-27T14:34:59.005Z,102685.89
2018-01-27T14:37:26.668Z,102692.95
2018-01-27T14:39:54.213Z,102685.41
2018-01-27T14:42:21.761Z,102682.28
2018-01-27T14:44:49.310Z,102688.80
2018-01-27T14:47:16.857Z,102680.66
2018-01-27T14:49:44.407Z,102679.88
2018-01-27T14:52:12.667Z,102687.57
2018-01-27T14:54:40.213Z,102696.87
2018-01-27T14:57:07.938Z,102693.84
2018-01-27T14:59:35.486Z,102691.63
2018-01-27T15:02:03.035Z,102692.66
2018-01-27T15:04:31.404Z,102705.38
2018-01-27T15:06:58.952Z,102704.73
2018-01-27T15:09:26.526Z,102699.36
2018-01-27T15:11:54.982Z,102703.02
2018-01-27T15:14:22.525Z,102695.45
2018-01-27T15:16:50.073Z,102697.69
2018-01-27T15:19:17.622Z,102691.67
2018-01-27T15:21:45.231Z,102689.83
2018-01-27T15:24:12.769Z,102687.96
2018-01-27T15:26:40.313Z,102683.27
2018-01-27T15:29:07.860Z,102686.80
2018-01-27T15:31:35.440Z,102692.40
2018-01-27T15:34:02.995Z,102696.43
2018-01-27T15:36:30.541Z,102689.49
2018-01-27T15:38:58.154Z,102687.00
2018-01-27T15:41:25.699Z,102684.45
2018-01-27T15:43:54.077Z,102683.17
2018-01-27T15:46:22.630Z,102680.73
2018-01-27T15:48:50.180Z,102681.66
2018-01-27T15:51:17.725Z,102679.59
2018-01-27T15:53:46.205Z,102689.04
2018-01-27T15:56:13.749Z,102680.59
2018-01-27T15:58:42.084Z,102693.30
2018-01-27T16:01:09.648Z,102690.44
2018-01-27T16:03:38.310Z,102696.01
2018-01-27T16:06:06.034Z,102695.70
2018-01-27T16:08:33.579Z,102698.83
2018-01-27T16:11:01.149Z,102696.30
2018-01-27T16:13:28.702Z,102697.64
2018-01-27T16:15:56.954Z,102700.56
2018-01-27T16:18:24.508Z,102693.70
2018-01-27T16:20:52.131Z,102695.81
2018-01-27T16:23:19.768Z,102692.50
2018-01-27T16:25:47.441Z,102684.77
2018-01-27T16:28:15.113Z,102680.65
2018-01-27T16:30:42.661Z,102685.09
2018-01-27T16:33:10.201Z,102691.73
2018-01-27T16:35:37.745Z,102691.80
2018-01-27T16:38:05.422Z,102696.14
2018-01-27T16:40:33.002Z,102692.45
2018-01-27T16:43:00.555Z,102688.73
2018-01-27T16:45:28.094Z,102684.28
2018-01-27T16:47:55.644Z,102680.64
2018-01-27T16:50:23.193Z,102689.80
2018-01-27T16:52:50.826Z,102692.83
2018-01-27T16:55:18.470Z,102693.20
2018-01-27T16:57:46.095Z,102695.50
2018-01-27T17:00:13.658Z,102691.22
2018-01-27T17:02:41.218Z,102691.66
2018-01-27T17:05:08.777Z,102695.11
2018-01-27T17:07:36.325Z,102691.65
2018-01-27T17:10:03.934Z,102691.13
2018-01-27T17:12:31.593Z,102696.42
2018-01-27T17:14:59.159Z,102694.31
2018-01-27T17:17:26.818Z,102697.19
2018-01-27T17:19:55.145Z,102688.95
2018-01-27T17:22:22.689Z,102682.59
2018-01-27T17:24:50.239Z,102684.06
2018-01-27T17:27:17.786Z,102671.59
2018-01-27T17:29:45.337Z,102677.06
2018-01-27T17:32:12.881Z,102674.25
2018-01-27T17:34:41.337Z,102670.42
2018-01-27T17:37:08.882Z,102666.20
2018-01-27T17:39:37.465Z,102665.88
2018-01-27T17:42:05.010Z,102656.89
2018-01-27T17:44:32.562Z,102650.78
2018-01-27T17:47:00.214Z,102640.59
2018-01-27T17:49:27.765Z,102636.10
2018-01-27T17:51:55.306Z,102633.45
2018-01-27T17:54:22.849Z,102629.75
2018-01-27T17:56:50.422Z,102629.38
2018-01-27T17:59:17.975Z,102619.15
2018-01-27T18:01:45.523Z,102608.39
2018-01-27T18:04:13.062Z,102618.59
2018-01-27T18:06:40.605Z,102616.65
2018-01-27T18:09:08.157Z,102618.59
2018-01-27T18:11:35.709Z,102612.80
2018-01-27T18:14:03.334Z,102621.99
2018-01-27T18:16:30.934Z,102621.20
2018-01-27T18:18:58.480Z,102614.52
2018-01-27T18:21:26.823Z,102609.30
2018-01-27T18:23:54.377Z,102620.34
2018-01-27T18:26:21.926Z,102619.86
2018-01-27T18:28:49.550Z,102623.70
2018-01-27T18:31:17.093Z,102610.50
2018-01-27T18:33:44.641Z,102612.80
2018-01-27T18:36:12.198Z,102616.69
2018-01-27T18:38:39.742Z,102614.62
2018-01-27T18:41:07.324Z,102608.97
2018-01-27T18:43:34.917Z,102604.01
2018-01-27T18:46:02.471Z,102608.87
2018-01-27T18:48:30.021Z,102607.95
2018-01-27T18:50:57.566Z,102601.28
2018-01-27T18:53:25.110Z,102606.94
2018-01-27T18:55:53.690Z,102597.77
2018-01-27T18:58:21.270Z,102597.30
2018-01-27T19:00:48.813Z,102594.41
2018-01-27T19:03:17.343Z,102588.25
2018-01-27T19:05:44.901Z,102586.86
2018-01-27T19:08:12.643Z,102574.72
2018-01-27T19:10:40.433Z,102574.48
2018-01-27T19:13:07.981Z,102567.84
2018-01-27T19:15:35.559Z,102561.74
2018-01-27T19:18:03.908Z,102560.16
2018-01-27T19:20:32.293Z,102566.00
2018-01-27T19:23:00.638Z,102564.02
2018-01-27T19:25:29.098Z,102563.64
2018-01-27T19:27:56.654Z,102561.56
2018-01-27T19:30:24.206Z,102561.52
2018-01-27T19:32:51.754Z,102558.80
2018-01-27T19:35:19.327Z,102543.94
2018-01-27T19:37:46.873Z,102545.36
2018-01-27T19:40:14.417Z,102547.83
2018-01-27T19:42:41.968Z,102548.17
2018-01-27T19:45:09.513Z,102554.27
2018-01-27T19:47:37.950Z,102547.70
2018-01-27T19:50:05.598Z,102548.66
2018-01-27T19:52:33.158Z,102539.11
2018-01-27T19:55:00.703Z,102539.27
2018-01-27T19:57:28.249Z,102530.72
2018-01-27T19:59:55.799Z,102524.25
2018-01-27T20:02:23.346Z,102528.26
2018-01-27T20:04:50.964Z,102526.02
2018-01-27T20:07:18.522Z,102518.90
2018-01-27T20:09:46.873Z,102511.22
2018-01-27T20:12:14.707Z,102498.22
2018-01-27T20:14:42.253Z,102487.17
2018-01-27T20:17:09.881Z,102490.75
2018-01-27T20:19:38.040Z,102493.30
2018-01-27T20:22:05.595Z,102475.34
2018-01-27T20:24:33.962Z,102462.00
2018-01-27T20:27:01.570Z,102459.42
2018-01-27T20:29:29.114Z,102458.55
2018-01-27T20:31:56.651Z,102448.16
2018-01-27T20:34:24.268Z,102447.33
2018-01-27T20:36:51.794Z,102450.48
2018-01-27T20:39:19.374Z,102454.41
2018-01-27T20:41:47.000Z,102459.20
2018-01-27T20:44:14.591Z,102471.72
2018-01-27T20:46:42.170Z,102484.06
2018-01-27T20:49:10.326Z,102490.15
2018-01-27T20:51:37.869Z,102480.13
2018-01-27T20:54:05.421Z,102475.73
2018-01-27T20:56:32.978Z,102476.11
2018-01-27T20:59:00.528Z,102470.84
2018-01-27T21:01:28.074Z,102469.80
2018-01-27T21:03:55.790Z,102446.62
2018-01-27T21:06:23.342Z,102432.70
2018-01-27T21:08:50.902Z,102417.78
2018-01-27T21:11:18.478Z,102421.25
2018-01-27T21:13:46.962Z,102419.50
2018-01-27T21:16:15.422Z,102409.28
2018-01-27T21:18:43.820Z,102401.66
2018-01-27T21:21:11.362Z,102405.55
2018-01-27T21:23:38.911Z,102400.08
2018-01-27T21:26:06.465Z,102393.88
2018-01-27T21:28:34.010Z,102399.39
2018-01-27T21:31:01.553Z,102405.20
2018-01-27T21:33:29.102Z,102415.87
2018-01-27T21:35:58.480Z,102408.56
2018-01-27T21:38:26.836Z,102406.30
2018-01-27T21:40:54.378Z,102401.45
2018-01-27T21:43:21.925Z,102388.11
2018-01-27T21:45:49.542Z,102382.44
2018-01-27T21:48:17.082Z,102375.97
2018-01-27T21:50:44.636Z,102374.13
2018-01-27T21:53:12.222Z,102379.59
2018-01-27T21:55:39.814Z,102390.06
2018-01-27T21:58:07.390Z,102376.41
2018-01-27T22:00:34.949Z,102380.40
2018-01-27T22:03:02.559Z,102391.95
2018-01-27T22:05:30.102Z,102374.04
2018-01-27T22:07:57.649Z,102355.13
2018-01-27T22:10:25.194Z,102347.45
2018-01-27T22:12:52.738Z,102340.04
2018-01-27T22:15:20.278Z,102345.28
2018-01-27T22:17:47.834Z,102345.23
2018-01-27T22:20:15.466Z,102328.48
2018-01-27T22:22:43.065Z,102315.64
2018-01-27T22:25:10.628Z,102304.82
2018-01-27T22:27:38.382Z,102287.53
2018-01-27T22:30:06.702Z,102279.70
2018-01-27T22:32:34.246Z,102285.86
2018-01-27T22:35:01.789Z,102284.08
2018-01-27T22:37:29.342Z,102267.83
2018-01-27T22:39:56.885Z,102272.28
2018-01-27T22:42:24.465Z,102260.26
2018-01-27T22:44:52.024Z,102252.84
2018-01-27T22:47:19.574Z,102260.31
2018-01-27T22:49:47.916Z,102261.11
2018-01-27T22:52:16.461Z,102252.91
2018-01-27T22:54:44.814Z,102243.51
2018-01-27T22:57:12.359Z,102227.91
2018-01-27T22:59:40.894Z,102232.22
2018-01-27T23:02:09.230Z,102232.09
2018-01-27T23:04:37.617Z,102235.04
2018-01-27T23:07:05.862Z,102240.17
2018-01-27T23:09:34.175Z,102237.05
2018-01-27T23:12:01.842Z,102244.95
2018-01-27T23:14:29.601Z,102236.05
2018-01-27T23:16:57.165Z,102221.15
2018-01-27T23:19:24.713Z,102207.73
2018-01-27T23:21:52.259Z,102191.66
2018-01-27T23:24:19.812Z,102184.97
2018-01-27T23:26:48.130Z,102193.08
2018-01-27T23:29:16.573Z,102186.83
2018-01-27T23:31:44.889Z,102175.52
2018-01-27T23:34:13.232Z,102173.86
2018-01-27T23:36:41.648Z,102166.27
2018-01-27T23:39:10.109Z,102162.04
2018-01-27T23:41:38.710Z,102159.73
2018-01-27T23:44:07.165Z,102155.05
2018-01-27T23:46:35.410Z,102150.20
2018-01-27T23:49:03.725Z,102147.91
2018-01-27T23:51:32.098Z,102150.20
2018-01-27T23:53:59.641Z,102134.27
2018-01-27T23:56:28.121Z,102139.31
2018-01-27T23:58:56.610Z,102128.47
